sensor_id;sensor_type;location;lat;lon;timestamp;temperature;humidity
24800;DHT22;12897;50.812;4.430;2024-01-30T00:02:07;11.70;99.90
24800;DHT22;12897;50.812;4.430;2024-01-30T00:04:43;11.90;99.90
24800;DHT22;12897;50.812;4.430;2024-01-30T00:07:13;11.90;99.90
24800;DHT22;12897;50.812;4.430;2024-01-30T00:09:40;12.00;99.90
24800;DHT22;12897;50.812;4.430;2024-01-30T00:12:14;12.10;99.90
24800;DHT22;12897;50.812;4.430;2024-01-30T00:14:47;12.10;99.90
24800;DHT22;12897;50.812;4.430;2024-01-30T00:17:12;12.10;99.90
24800;DHT22;12897;50.812;4.430;2024-01-30T00:19:45;12.00;99.90
24800;DHT22;12897;50.812;4.430;2024-01-30T00:22:14;11.90;99.90
24800;DHT22;12897;50.812;4.430;2024-01-30T00:24:45;11.60;99.90
24800;DHT22;12897;50.812;4.430;2024-01-30T00:27:21;11.70;99.90
24800;DHT22;12897;50.812;4.430;2024-01-30T00:30:04;11.70;99.90
24800;DHT22;12897;50.812;4.430;2024-01-30T00:32:25;11.80;99.90
24800;DHT22;12897;50.812;4.430;2024-01-30T00:34:57;11.80;99.90
24800;DHT22;12897;50.812;4.430;2024-01-30T00:37:28;11.80;99.90
24800;DHT22;12897;50.812;4.430;2024-01-30T00:40:09;11.90;99.90
24800;DHT22;12897;50.812;4.430;2024-01-30T00:42:38;12.10;99.90
24800;DHT22;12897;50.812;4.430;2024-01-30T00:45:14;12.10;99.90
24800;DHT22;12897;50.812;4.430;2024-01-30T00:47:44;12.00;99.90
24800;DHT22;12897;50.812;4.430;2024-01-30T00:50:13;12.00;99.90
24800;DHT22;12897;50.812;4.430;2024-01-30T00:52:41;12.10;99.90
24800;DHT22;12897;50.812;4.430;2024-01-30T00:55:11;12.20;99.90
24800;DHT22;12897;50.812;4.430;2024-01-30T00:57:40;12.30;99.90
24800;DHT22;12897;50.812;4.430;2024-01-30T01:00:11;12.10;99.90
24800;DHT22;12897;50.812;4.430;2024-01-30T01:02:40;12.00;99.90
24800;DHT22;12897;50.812;4.430;2024-01-30T01:05:16;12.10;99.90
24800;DHT22;12897;50.812;4.430;2024-01-30T01:07:43;12.00;99.90
24800;DHT22;12897;50.812;4.430;2024-01-30T01:10:23;12.10;99.90
24800;DHT22;12897;50.812;4.430;2024-01-30T01:12:49;12.00;99.90
24800;DHT22;12897;50.812;4.430;2024-01-30T01:15:15;12.00;99.90
24800;DHT22;12897;50.812;4.430;2024-01-30T01:17:45;12.00;99.90
24800;DHT22;12897;50.812;4.430;2024-01-30T01:20:15;12.00;99.90
24800;DHT22;12897;50.812;4.430;2024-01-30T01:22:42;12.10;99.90
24800;DHT22;12897;50.812;4.430;2024-01-30T01:25:11;11.90;99.90
24800;DHT22;12897;50.812;4.430;2024-01-30T01:27:41;12.10;99.90
24800;DHT22;12897;50.812;4.430;2024-01-30T01:30:22;12.10;99.90
24800;DHT22;12897;50.812;4.430;2024-01-30T01:32:58;12.10;99.90
24800;DHT22;12897;50.812;4.430;2024-01-30T01:35:15;12.10;99.90
24800;DHT22;12897;50.812;4.430;2024-01-30T01:37:44;12.00;99.90
24800;DHT22;12897;50.812;4.430;2024-01-30T01:40:13;12.10;99.90
24800;DHT22;12897;50.812;4.430;2024-01-30T01:42:44;12.20;99.90
24800;DHT22;12897;50.812;4.430;2024-01-30T01:45:18;12.10;99.90
24800;DHT22;12897;50.812;4.430;2024-01-30T01:47:49;12.30;99.90
24800;DHT22;12897;50.812;4.430;2024-01-30T01:50:20;12.30;99.90
24800;DHT22;12897;50.812;4.430;2024-01-30T01:52:50;12.30;99.90
24800;DHT22;12897;50.812;4.430;2024-01-30T01:55:36;12.40;99.90
24800;DHT22;12897;50.812;4.430;2024-01-30T01:58:11;12.50;99.90
24800;DHT22;12897;50.812;4.430;2024-01-30T02:00:30;12.50;99.90
24800;DHT22;12897;50.812;4.430;2024-01-30T02:03:05;12.30;99.90
24800;DHT22;12897;50.812;4.430;2024-01-30T02:05:34;12.20;99.90
24800;DHT22;12897;50.812;4.430;2024-01-30T02:08:20;12.20;99.90
24800;DHT22;12897;50.812;4.430;2024-01-30T02:10:37;12.20;99.90
24800;DHT22;12897;50.812;4.430;2024-01-30T02:13:08;12.20;99.90
24800;DHT22;12897;50.812;4.430;2024-01-30T02:15:39;12.00;99.90
24800;DHT22;12897;50.812;4.430;2024-01-30T02:18:11;12.10;99.90
24800;DHT22;12897;50.812;4.430;2024-01-30T02:20:42;12.10;99.90
24800;DHT22;12897;50.812;4.430;2024-01-30T02:23:16;12.10;99.90
24800;DHT22;12897;50.812;4.430;2024-01-30T02:25:48;12.00;99.90
24800;DHT22;12897;50.812;4.430;2024-01-30T02:28:19;11.90;99.90
24800;DHT22;12897;50.812;4.430;2024-01-30T02:33:24;12.10;99.90
24800;DHT22;12897;50.812;4.430;2024-01-30T02:35:55;12.00;99.90
24800;DHT22;12897;50.812;4.430;2024-01-30T02:38:24;12.00;99.90
24800;DHT22;12897;50.812;4.430;2024-01-30T02:40:50;12.10;99.90
24800;DHT22;12897;50.812;4.430;2024-01-30T02:43:24;12.20;99.90
24800;DHT22;12897;50.812;4.430;2024-01-30T02:45:48;12.30;99.90
24800;DHT22;12897;50.812;4.430;2024-01-30T02:48:18;12.20;99.90
24800;DHT22;12897;50.812;4.430;2024-01-30T02:50:45;12.30;99.90
24800;DHT22;12897;50.812;4.430;2024-01-30T02:53:13;12.40;99.90
24800;DHT22;12897;50.812;4.430;2024-01-30T02:55:49;12.40;99.90
24800;DHT22;12897;50.812;4.430;2024-01-30T02:58:25;12.40;99.90
24800;DHT22;12897;50.812;4.430;2024-01-30T03:00:55;12.10;99.90
24800;DHT22;12897;50.812;4.430;2024-01-30T03:03:19;12.00;99.90
24800;DHT22;12897;50.812;4.430;2024-01-30T03:05:48;11.90;99.90
24800;DHT22;12897;50.812;4.430;2024-01-30T03:08:17;11.90;99.90
24800;DHT22;12897;50.812;4.430;2024-01-30T03:10:46;11.80;99.90
24800;DHT22;12897;50.812;4.430;2024-01-30T03:13:24;11.90;99.90
24800;DHT22;12897;50.812;4.430;2024-01-30T03:15:53;11.90;99.90
24800;DHT22;12897;50.812;4.430;2024-01-30T03:18:35;12.00;99.90
24800;DHT22;12897;50.812;4.430;2024-01-30T03:20:53;12.20;99.90
24800;DHT22;12897;50.812;4.430;2024-01-30T03:23:22;12.00;99.90
24800;DHT22;12897;50.812;4.430;2024-01-30T03:28:44;12.10;99.90
24800;DHT22;12897;50.812;4.430;2024-01-30T03:30:58;12.00;99.90
24800;DHT22;12897;50.812;4.430;2024-01-30T03:33:31;12.30;99.90
24800;DHT22;12897;50.812;4.430;2024-01-30T03:36:02;12.50;99.90
24800;DHT22;12897;50.812;4.430;2024-01-30T03:38:28;12.60;99.90
24800;DHT22;12897;50.812;4.430;2024-01-30T03:41:07;12.70;99.90
24800;DHT22;12897;50.812;4.430;2024-01-30T03:43:31;12.60;99.90
24800;DHT22;12897;50.812;4.430;2024-01-30T03:46:08;12.60;99.90
24800;DHT22;12897;50.812;4.430;2024-01-30T03:48:43;12.50;99.90
24800;DHT22;12897;50.812;4.430;2024-01-30T03:51:12;12.50;99.90
24800;DHT22;12897;50.812;4.430;2024-01-30T03:53:43;12.50;99.90
24800;DHT22;12897;50.812;4.430;2024-01-30T03:56:14;12.50;99.90
24800;DHT22;12897;50.812;4.430;2024-01-30T04:01:15;12.70;99.90
24800;DHT22;12897;50.812;4.430;2024-01-30T04:03:47;12.60;99.90
24800;DHT22;12897;50.812;4.430;2024-01-30T04:06:21;12.60;99.90
24800;DHT22;12897;50.812;4.430;2024-01-30T04:08:51;12.50;99.90
24800;DHT22;12897;50.812;4.430;2024-01-30T04:13:52;12.30;99.90
24800;DHT22;12897;50.812;4.430;2024-01-30T04:16:22;12.20;99.90
24800;DHT22;12897;50.812;4.430;2024-01-30T04:21:40;12.20;99.90
24800;DHT22;12897;50.812;4.430;2024-01-30T04:24:14;11.90;99.90
24800;DHT22;12897;50.812;4.430;2024-01-30T04:26:56;11.80;99.90
24800;DHT22;12897;50.812;4.430;2024-01-30T04:29:13;11.80;99.90
24800;DHT22;12897;50.812;4.430;2024-01-30T04:31:50;11.80;99.90
24800;DHT22;12897;50.812;4.430;2024-01-30T04:34:20;11.90;99.90
24800;DHT22;12897;50.812;4.430;2024-01-30T04:36:54;11.80;99.90
24800;DHT22;12897;50.812;4.430;2024-01-30T04:39:20;11.90;99.90
24800;DHT22;12897;50.812;4.430;2024-01-30T04:41:48;12.10;99.90
24800;DHT22;12897;50.812;4.430;2024-01-30T04:44:18;12.20;99.90
24800;DHT22;12897;50.812;4.430;2024-01-30T04:46:51;12.40;99.90
24800;DHT22;12897;50.812;4.430;2024-01-30T04:49:22;12.40;99.90
24800;DHT22;12897;50.812;4.430;2024-01-30T04:51:56;12.30;99.90
24800;DHT22;12897;50.812;4.430;2024-01-30T04:54:34;12.20;99.90
24800;DHT22;12897;50.812;4.430;2024-01-30T04:56:57;12.00;99.90
24800;DHT22;12897;50.812;4.430;2024-01-30T04:59:25;12.20;99.90
24800;DHT22;12897;50.812;4.430;2024-01-30T05:02:04;12.40;99.90
24800;DHT22;12897;50.812;4.430;2024-01-30T05:04:37;12.40;99.90
24800;DHT22;12897;50.812;4.430;2024-01-30T05:06:57;12.50;99.90
24800;DHT22;12897;50.812;4.430;2024-01-30T05:09:29;12.60;99.90
24800;DHT22;12897;50.812;4.430;2024-01-30T05:11:56;12.60;99.90
24800;DHT22;12897;50.812;4.430;2024-01-30T05:17:00;12.60;99.90
24800;DHT22;12897;50.812;4.430;2024-01-30T05:19:34;12.50;99.90
24800;DHT22;12897;50.812;4.430;2024-01-30T05:22:21;12.50;99.90
24800;DHT22;12897;50.812;4.430;2024-01-30T05:24:37;12.40;99.90
24800;DHT22;12897;50.812;4.430;2024-01-30T05:27:22;12.40;99.90
24800;DHT22;12897;50.812;4.430;2024-01-30T05:29:44;12.50;99.90
24800;DHT22;12897;50.812;4.430;2024-01-30T05:32:15;12.30;99.90
24800;DHT22;12897;50.812;4.430;2024-01-30T05:34:49;12.20;99.90
24800;DHT22;12897;50.812;4.430;2024-01-30T05:37:18;12.40;99.90
24800;DHT22;12897;50.812;4.430;2024-01-30T05:39:45;12.40;99.90
24800;DHT22;12897;50.812;4.430;2024-01-30T05:42:15;12.40;99.90
24800;DHT22;12897;50.812;4.430;2024-01-30T05:44:49;12.50;99.90
24800;DHT22;12897;50.812;4.430;2024-01-30T05:47:17;12.40;99.90
24800;DHT22;12897;50.812;4.430;2024-01-30T05:49:48;12.20;99.90
24800;DHT22;12897;50.812;4.430;2024-01-30T05:52:20;12.10;99.90
24800;DHT22;12897;50.812;4.430;2024-01-30T05:54:49;12.10;99.90
24800;DHT22;12897;50.812;4.430;2024-01-30T05:57:18;12.10;99.90
24800;DHT22;12897;50.812;4.430;2024-01-30T05:59:48;12.20;99.90
24800;DHT22;12897;50.812;4.430;2024-01-30T06:02:15;12.30;99.90
24800;DHT22;12897;50.812;4.430;2024-01-30T06:04:43;12.30;99.90
24800;DHT22;12897;50.812;4.430;2024-01-30T06:07:11;12.30;99.90
24800;DHT22;12897;50.812;4.430;2024-01-30T06:09:39;12.10;99.90
24800;DHT22;12897;50.812;4.430;2024-01-30T06:12:07;12.00;99.90
24800;DHT22;12897;50.812;4.430;2024-01-30T06:14:37;12.00;99.90
24800;DHT22;12897;50.812;4.430;2024-01-30T06:17:05;11.90;99.90
24800;DHT22;12897;50.812;4.430;2024-01-30T06:19:32;11.80;99.90
24800;DHT22;12897;50.812;4.430;2024-01-30T06:22:00;11.50;99.90
24800;DHT22;12897;50.812;4.430;2024-01-30T06:24:31;11.50;99.90
24800;DHT22;12897;50.812;4.430;2024-01-30T06:27:00;11.60;99.90
24800;DHT22;12897;50.812;4.430;2024-01-30T06:29:27;11.70;99.90
24800;DHT22;12897;50.812;4.430;2024-01-30T06:31:55;11.60;99.90
24800;DHT22;12897;50.812;4.430;2024-01-30T06:34:23;11.80;99.90
24800;DHT22;12897;50.812;4.430;2024-01-30T06:36:53;11.70;99.90
24800;DHT22;12897;50.812;4.430;2024-01-30T06:39:20;11.80;99.90
24800;DHT22;12897;50.812;4.430;2024-01-30T06:41:49;11.60;99.90
24800;DHT22;12897;50.812;4.430;2024-01-30T06:44:16;11.50;99.90
24800;DHT22;12897;50.812;4.430;2024-01-30T06:46:44;11.80;99.90
24800;DHT22;12897;50.812;4.430;2024-01-30T06:49:11;11.70;99.90
24800;DHT22;12897;50.812;4.430;2024-01-30T06:51:39;11.70;99.90
24800;DHT22;12897;50.812;4.430;2024-01-30T06:54:06;11.60;99.90
24800;DHT22;12897;50.812;4.430;2024-01-30T06:56:34;11.70;99.90
24800;DHT22;12897;50.812;4.430;2024-01-30T06:59:02;11.80;99.90
24800;DHT22;12897;50.812;4.430;2024-01-30T07:01:30;11.70;99.90
24800;DHT22;12897;50.812;4.430;2024-01-30T07:03:58;11.80;99.90
24800;DHT22;12897;50.812;4.430;2024-01-30T07:06:25;11.80;99.90
24800;DHT22;12897;50.812;4.430;2024-01-30T07:08:53;11.50;99.90
24800;DHT22;12897;50.812;4.430;2024-01-30T07:11:21;11.40;99.90
24800;DHT22;12897;50.812;4.430;2024-01-30T07:13:54;11.40;99.90
24800;DHT22;12897;50.812;4.430;2024-01-30T07:16:21;11.20;99.90
24800;DHT22;12897;50.812;4.430;2024-01-30T07:18:50;11.50;99.90
24800;DHT22;12897;50.812;4.430;2024-01-30T07:21:17;11.50;99.90
24800;DHT22;12897;50.812;4.430;2024-01-30T07:23:45;11.50;99.90
24800;DHT22;12897;50.812;4.430;2024-01-30T07:26:12;11.60;99.90
24800;DHT22;12897;50.812;4.430;2024-01-30T07:28:42;11.60;99.90
24800;DHT22;12897;50.812;4.430;2024-01-30T07:31:15;11.70;99.90
24800;DHT22;12897;50.812;4.430;2024-01-30T07:33:39;11.80;99.90
24800;DHT22;12897;50.812;4.430;2024-01-30T07:36:09;11.90;99.90
24800;DHT22;12897;50.812;4.430;2024-01-30T07:38:37;12.00;99.90
24800;DHT22;12897;50.812;4.430;2024-01-30T07:41:04;11.90;99.90
24800;DHT22;12897;50.812;4.430;2024-01-30T07:43:35;11.90;99.90
24800;DHT22;12897;50.812;4.430;2024-01-30T07:46:02;11.90;99.90
24800;DHT22;12897;50.812;4.430;2024-01-30T07:48:33;12.00;99.90
24800;DHT22;12897;50.812;4.430;2024-01-30T07:51:02;12.00;99.90
24800;DHT22;12897;50.812;4.430;2024-01-30T07:53:33;11.90;99.90
24800;DHT22;12897;50.812;4.430;2024-01-30T07:55:59;11.90;99.90
24800;DHT22;12897;50.812;4.430;2024-01-30T07:58:28;12.00;99.90
24800;DHT22;12897;50.812;4.430;2024-01-30T08:00:56;12.00;99.90
24800;DHT22;12897;50.812;4.430;2024-01-30T08:03:24;12.00;99.90
24800;DHT22;12897;50.812;4.430;2024-01-30T08:05:52;12.00;99.90
24800;DHT22;12897;50.812;4.430;2024-01-30T08:08:20;12.00;99.90
24800;DHT22;12897;50.812;4.430;2024-01-30T08:10:47;12.10;99.90
24800;DHT22;12897;50.812;4.430;2024-01-30T08:13:16;12.30;99.90
24800;DHT22;12897;50.812;4.430;2024-01-30T08:15:44;12.30;99.90
24800;DHT22;12897;50.812;4.430;2024-01-30T08:18:16;12.40;99.90
24800;DHT22;12897;50.812;4.430;2024-01-30T08:20:40;12.30;99.90
24800;DHT22;12897;50.812;4.430;2024-01-30T08:23:08;12.20;99.90
24800;DHT22;12897;50.812;4.430;2024-01-30T08:25:37;12.20;99.90
24800;DHT22;12897;50.812;4.430;2024-01-30T08:28:04;12.40;99.90
24800;DHT22;12897;50.812;4.430;2024-01-30T08:30:33;12.50;99.90
24800;DHT22;12897;50.812;4.430;2024-01-30T08:33:02;12.50;99.90
24800;DHT22;12897;50.812;4.430;2024-01-30T08:35:29;12.70;99.90
24800;DHT22;12897;50.812;4.430;2024-01-30T08:37:59;12.60;99.90
24800;DHT22;12897;50.812;4.430;2024-01-30T08:40:27;12.50;99.90
24800;DHT22;12897;50.812;4.430;2024-01-30T08:42:56;12.80;99.90
24800;DHT22;12897;50.812;4.430;2024-01-30T08:45:23;12.70;99.90
24800;DHT22;12897;50.812;4.430;2024-01-30T08:47:51;12.50;99.90
24800;DHT22;12897;50.812;4.430;2024-01-30T08:50:18;12.80;99.90
24800;DHT22;12897;50.812;4.430;2024-01-30T08:52:46;13.00;99.90
24800;DHT22;12897;50.812;4.430;2024-01-30T08:55:14;13.00;99.90
24800;DHT22;12897;50.812;4.430;2024-01-30T08:57:41;13.00;99.90
24800;DHT22;12897;50.812;4.430;2024-01-30T09:00:09;12.80;99.90
24800;DHT22;12897;50.812;4.430;2024-01-30T09:02:37;12.70;99.90
24800;DHT22;12897;50.812;4.430;2024-01-30T09:05:05;12.60;99.90
24800;DHT22;12897;50.812;4.430;2024-01-30T09:07:34;12.70;99.90
24800;DHT22;12897;50.812;4.430;2024-01-30T09:10:03;12.70;99.90
24800;DHT22;12897;50.812;4.430;2024-01-30T09:12:32;12.60;99.90
24800;DHT22;12897;50.812;4.430;2024-01-30T09:15:02;12.50;99.90
24800;DHT22;12897;50.812;4.430;2024-01-30T09:17:31;12.50;99.90
24800;DHT22;12897;50.812;4.430;2024-01-30T09:20:00;12.60;99.90
24800;DHT22;12897;50.812;4.430;2024-01-30T09:22:30;12.60;99.90
24800;DHT22;12897;50.812;4.430;2024-01-30T09:24:58;12.50;99.90
24800;DHT22;12897;50.812;4.430;2024-01-30T09:27:27;12.60;99.90
24800;DHT22;12897;50.812;4.430;2024-01-30T09:29:55;12.60;99.90
24800;DHT22;12897;50.812;4.430;2024-01-30T09:32:22;12.60;99.90
24800;DHT22;12897;50.812;4.430;2024-01-30T09:34:50;12.60;99.90
24800;DHT22;12897;50.812;4.430;2024-01-30T09:37:17;12.60;99.90
24800;DHT22;12897;50.812;4.430;2024-01-30T09:39:45;12.50;99.90
24800;DHT22;12897;50.812;4.430;2024-01-30T09:42:25;12.60;99.90
24800;DHT22;12897;50.812;4.430;2024-01-30T09:44:47;12.70;99.90
24800;DHT22;12897;50.812;4.430;2024-01-30T09:47:17;12.70;99.90
24800;DHT22;12897;50.812;4.430;2024-01-30T09:49:49;12.60;99.90
24800;DHT22;12897;50.812;4.430;2024-01-30T09:52:15;12.60;99.90
24800;DHT22;12897;50.812;4.430;2024-01-30T09:54:44;12.40;99.90
24800;DHT22;12897;50.812;4.430;2024-01-30T09:57:15;12.40;99.90
24800;DHT22;12897;50.812;4.430;2024-01-30T09:59:42;12.30;99.90
24800;DHT22;12897;50.812;4.430;2024-01-30T10:02:10;12.30;99.90
24800;DHT22;12897;50.812;4.430;2024-01-30T10:04:38;12.40;99.90
24800;DHT22;12897;50.812;4.430;2024-01-30T10:07:06;12.30;99.90
24800;DHT22;12897;50.812;4.430;2024-01-30T10:09:34;12.20;99.90
24800;DHT22;12897;50.812;4.430;2024-01-30T10:12:06;12.20;99.90
24800;DHT22;12897;50.812;4.430;2024-01-30T10:14:37;12.30;99.90
24800;DHT22;12897;50.812;4.430;2024-01-30T10:17:04;12.30;99.90
24800;DHT22;12897;50.812;4.430;2024-01-30T10:19:32;12.30;99.90
24800;DHT22;12897;50.812;4.430;2024-01-30T10:22:04;12.30;99.90
24800;DHT22;12897;50.812;4.430;2024-01-30T10:24:33;12.50;99.90
24800;DHT22;12897;50.812;4.430;2024-01-30T10:27:01;12.50;99.90
24800;DHT22;12897;50.812;4.430;2024-01-30T10:29:29;12.40;99.90
24800;DHT22;12897;50.812;4.430;2024-01-30T10:32:02;12.40;99.90
24800;DHT22;12897;50.812;4.430;2024-01-30T10:34:30;12.40;99.90
24800;DHT22;12897;50.812;4.430;2024-01-30T10:37:12;12.30;99.90
24800;DHT22;12897;50.812;4.430;2024-01-30T10:39:42;12.40;99.90
24800;DHT22;12897;50.812;4.430;2024-01-30T10:42:15;12.40;99.90
24800;DHT22;12897;50.812;4.430;2024-01-30T10:45:08;12.40;99.90
24800;DHT22;12897;50.812;4.430;2024-01-30T10:47:37;12.40;99.90
24800;DHT22;12897;50.812;4.430;2024-01-30T10:50:08;12.50;99.90
24800;DHT22;12897;50.812;4.430;2024-01-30T10:52:37;12.50;99.90
24800;DHT22;12897;50.812;4.430;2024-01-30T10:55:05;12.40;99.90
24800;DHT22;12897;50.812;4.430;2024-01-30T10:57:34;12.50;99.90
24800;DHT22;12897;50.812;4.430;2024-01-30T11:00:07;12.50;99.90
24800;DHT22;12897;50.812;4.430;2024-01-30T11:02:46;12.40;99.90
24800;DHT22;12897;50.812;4.430;2024-01-30T11:05:14;12.30;99.90
24800;DHT22;12897;50.812;4.430;2024-01-30T11:07:42;12.10;99.90
24800;DHT22;12897;50.812;4.430;2024-01-30T11:10:11;12.00;99.90
24800;DHT22;12897;50.812;4.430;2024-01-30T11:12:41;12.00;99.90
24800;DHT22;12897;50.812;4.430;2024-01-30T11:15:16;11.90;99.90
24800;DHT22;12897;50.812;4.430;2024-01-30T11:20:11;11.90;99.90
24800;DHT22;12897;50.812;4.430;2024-01-30T11:22:42;11.90;99.90
24800;DHT22;12897;50.812;4.430;2024-01-30T11:25:17;11.90;99.90
24800;DHT22;12897;50.812;4.430;2024-01-30T11:27:47;11.90;99.90
24800;DHT22;12897;50.812;4.430;2024-01-30T11:30:26;12.00;99.90
24800;DHT22;12897;50.812;4.430;2024-01-30T11:33:05;11.90;99.90
24800;DHT22;12897;50.812;4.430;2024-01-30T11:38:13;11.80;99.90
24800;DHT22;12897;50.812;4.430;2024-01-30T11:40:41;11.70;99.90
24800;DHT22;12897;50.812;4.430;2024-01-30T11:43:09;11.70;99.90
24800;DHT22;12897;50.812;4.430;2024-01-30T11:45:37;11.70;99.90
24800;DHT22;12897;50.812;4.430;2024-01-30T11:48:06;11.70;99.90
24800;DHT22;12897;50.812;4.430;2024-01-30T11:50:36;11.70;99.90
24800;DHT22;12897;50.812;4.430;2024-01-30T11:53:05;11.80;99.90
24800;DHT22;12897;50.812;4.430;2024-01-30T11:55:33;11.70;99.90
24800;DHT22;12897;50.812;4.430;2024-01-30T11:58:03;11.70;99.90
24800;DHT22;12897;50.812;4.430;2024-01-30T12:00:31;11.70;99.90
24800;DHT22;12897;50.812;4.430;2024-01-30T12:03:00;11.70;99.90
24800;DHT22;12897;50.812;4.430;2024-01-30T12:05:29;11.60;99.90
24800;DHT22;12897;50.812;4.430;2024-01-30T12:07:56;11.60;99.90
24800;DHT22;12897;50.812;4.430;2024-01-30T12:10:30;11.40;99.90
24800;DHT22;12897;50.812;4.430;2024-01-30T12:12:55;11.40;99.90
24800;DHT22;12897;50.812;4.430;2024-01-30T12:15:23;11.50;99.90
24800;DHT22;12897;50.812;4.430;2024-01-30T12:17:51;11.60;99.90
24800;DHT22;12897;50.812;4.430;2024-01-30T12:20:19;11.80;99.90
24800;DHT22;12897;50.812;4.430;2024-01-30T12:22:48;11.80;99.90
24800;DHT22;12897;50.812;4.430;2024-01-30T12:25:20;11.70;99.90
24800;DHT22;12897;50.812;4.430;2024-01-30T12:27:50;11.50;99.90
24800;DHT22;12897;50.812;4.430;2024-01-30T12:30:19;11.60;99.90
24800;DHT22;12897;50.812;4.430;2024-01-30T12:32:49;11.40;99.90
24800;DHT22;12897;50.812;4.430;2024-01-30T12:35:18;11.30;99.90
24800;DHT22;12897;50.812;4.430;2024-01-30T12:37:46;11.20;99.90
24800;DHT22;12897;50.812;4.430;2024-01-30T12:40:14;11.20;99.90
24800;DHT22;12897;50.812;4.430;2024-01-30T12:42:42;11.20;99.90
24800;DHT22;12897;50.812;4.430;2024-01-30T12:45:13;11.20;99.90
24800;DHT22;12897;50.812;4.430;2024-01-30T12:47:45;11.10;99.90
24800;DHT22;12897;50.812;4.430;2024-01-30T12:50:13;11.10;99.90
24800;DHT22;12897;50.812;4.430;2024-01-30T12:52:43;11.20;99.90
24800;DHT22;12897;50.812;4.430;2024-01-30T12:55:10;11.30;99.90
24800;DHT22;12897;50.812;4.430;2024-01-30T12:57:39;11.50;99.90
24800;DHT22;12897;50.812;4.430;2024-01-30T13:00:07;11.60;99.90
24800;DHT22;12897;50.812;4.430;2024-01-30T13:02:35;11.60;99.90
24800;DHT22;12897;50.812;4.430;2024-01-30T13:05:04;11.70;99.90
24800;DHT22;12897;50.812;4.430;2024-01-30T13:07:31;11.70;99.90
24800;DHT22;12897;50.812;4.430;2024-01-30T13:10:00;11.60;99.90
24800;DHT22;12897;50.812;4.430;2024-01-30T13:12:29;11.50;99.90
24800;DHT22;12897;50.812;4.430;2024-01-30T13:14:58;11.50;99.90
24800;DHT22;12897;50.812;4.430;2024-01-30T13:17:28;11.60;99.90
24800;DHT22;12897;50.812;4.430;2024-01-30T13:19:56;11.60;99.90
24800;DHT22;12897;50.812;4.430;2024-01-30T13:22:24;11.60;99.90
24800;DHT22;12897;50.812;4.430;2024-01-30T13:24:52;11.60;99.90
24800;DHT22;12897;50.812;4.430;2024-01-30T13:27:21;11.70;99.90
24800;DHT22;12897;50.812;4.430;2024-01-30T13:29:50;11.80;99.90
24800;DHT22;12897;50.812;4.430;2024-01-30T13:32:17;11.80;99.90
24800;DHT22;12897;50.812;4.430;2024-01-30T13:34:45;11.90;99.90
24800;DHT22;12897;50.812;4.430;2024-01-30T13:37:13;12.00;99.90
24800;DHT22;12897;50.812;4.430;2024-01-30T13:39:40;11.90;99.90
24800;DHT22;12897;50.812;4.430;2024-01-30T13:42:07;11.80;99.90
24800;DHT22;12897;50.812;4.430;2024-01-30T13:44:36;11.60;99.90
24800;DHT22;12897;50.812;4.430;2024-01-30T13:47:03;11.60;99.90
24800;DHT22;12897;50.812;4.430;2024-01-30T13:49:31;11.70;99.90
24800;DHT22;12897;50.812;4.430;2024-01-30T13:51:58;11.60;99.90
24800;DHT22;12897;50.812;4.430;2024-01-30T13:54:26;11.60;99.90
24800;DHT22;12897;50.812;4.430;2024-01-30T13:56:54;11.70;99.90
24800;DHT22;12897;50.812;4.430;2024-01-30T13:59:22;11.70;99.90
24800;DHT22;12897;50.812;4.430;2024-01-30T14:01:51;11.70;99.90
24800;DHT22;12897;50.812;4.430;2024-01-30T14:04:18;11.70;99.90
24800;DHT22;12897;50.812;4.430;2024-01-30T14:06:46;11.70;99.90
24800;DHT22;12897;50.812;4.430;2024-01-30T14:09:14;11.60;99.90
24800;DHT22;12897;50.812;4.430;2024-01-30T14:11:42;11.50;99.90
24800;DHT22;12897;50.812;4.430;2024-01-30T14:14:09;11.50;99.90
24800;DHT22;12897;50.812;4.430;2024-01-30T14:16:37;11.50;99.90
24800;DHT22;12897;50.812;4.430;2024-01-30T14:19:05;11.40;99.90
24800;DHT22;12897;50.812;4.430;2024-01-30T14:21:32;11.40;99.90
24800;DHT22;12897;50.812;4.430;2024-01-30T14:24:00;11.50;99.90
24800;DHT22;12897;50.812;4.430;2024-01-30T14:26:28;11.40;99.90
24800;DHT22;12897;50.812;4.430;2024-01-30T14:28:55;11.30;99.90
24800;DHT22;12897;50.812;4.430;2024-01-30T14:31:23;11.20;99.90
24800;DHT22;12897;50.812;4.430;2024-01-30T14:33:51;11.30;99.90
24800;DHT22;12897;50.812;4.430;2024-01-30T14:36:18;11.30;99.90
24800;DHT22;12897;50.812;4.430;2024-01-30T14:38:47;11.30;99.90
24800;DHT22;12897;50.812;4.430;2024-01-30T14:41:14;11.20;99.90
24800;DHT22;12897;50.812;4.430;2024-01-30T14:43:42;11.30;99.90
24800;DHT22;12897;50.812;4.430;2024-01-30T14:46:09;11.40;99.90
24800;DHT22;12897;50.812;4.430;2024-01-30T14:48:37;11.40;99.90
24800;DHT22;12897;50.812;4.430;2024-01-30T14:51:06;11.50;99.90
24800;DHT22;12897;50.812;4.430;2024-01-30T14:53:34;11.50;99.90
24800;DHT22;12897;50.812;4.430;2024-01-30T14:56:02;11.50;99.90
24800;DHT22;12897;50.812;4.430;2024-01-30T14:58:29;11.50;99.90
24800;DHT22;12897;50.812;4.430;2024-01-30T15:00:57;11.50;99.90
24800;DHT22;12897;50.812;4.430;2024-01-30T15:03:26;11.50;99.90
24800;DHT22;12897;50.812;4.430;2024-01-30T15:05:54;11.40;99.90
24800;DHT22;12897;50.812;4.430;2024-01-30T15:08:22;11.20;99.90
24800;DHT22;12897;50.812;4.430;2024-01-30T15:10:49;11.10;99.90
24800;DHT22;12897;50.812;4.430;2024-01-30T15:13:18;11.00;99.90
24800;DHT22;12897;50.812;4.430;2024-01-30T15:15:46;11.00;99.90
24800;DHT22;12897;50.812;4.430;2024-01-30T15:18:13;10.90;99.90
24800;DHT22;12897;50.812;4.430;2024-01-30T15:20:41;10.80;99.90
24800;DHT22;12897;50.812;4.430;2024-01-30T15:23:08;10.70;99.90
24800;DHT22;12897;50.812;4.430;2024-01-30T15:25:36;10.80;99.90
24800;DHT22;12897;50.812;4.430;2024-01-30T15:28:03;10.70;99.90
24800;DHT22;12897;50.812;4.430;2024-01-30T15:30:31;10.70;99.90
24800;DHT22;12897;50.812;4.430;2024-01-30T15:32:59;10.80;99.90
24800;DHT22;12897;50.812;4.430;2024-01-30T15:35:26;10.70;99.90
24800;DHT22;12897;50.812;4.430;2024-01-30T15:37:54;10.70;99.90
24800;DHT22;12897;50.812;4.430;2024-01-30T15:40:21;10.80;99.90
24800;DHT22;12897;50.812;4.430;2024-01-30T15:42:49;10.70;99.90
24800;DHT22;12897;50.812;4.430;2024-01-30T15:45:16;10.70;99.90
24800;DHT22;12897;50.812;4.430;2024-01-30T15:47:44;10.60;99.90
24800;DHT22;12897;50.812;4.430;2024-01-30T15:50:12;10.60;99.90
24800;DHT22;12897;50.812;4.430;2024-01-30T15:52:40;10.50;99.90
24800;DHT22;12897;50.812;4.430;2024-01-30T15:55:07;10.60;99.90
24800;DHT22;12897;50.812;4.430;2024-01-30T15:57:35;10.60;99.90
24800;DHT22;12897;50.812;4.430;2024-01-30T16:00:03;10.60;99.90
24800;DHT22;12897;50.812;4.430;2024-01-30T16:02:30;10.50;99.90
24800;DHT22;12897;50.812;4.430;2024-01-30T16:04:58;10.60;99.90